Time;durP1;ratioP1;P1;durP2;ratioP2;P2;SDS_P1;SDS_P2;PMS_P1;PMS_P2;Temp;Humidity;BMP_temperature;BMP_pressure;BME280_temperature;BME280_humidity;BME280_pressure;Samples;Min_cycle;Max_cycle;Signal;HPM_P1;HPM_P2
2023/06/26 00:01:35;;;;;;;29.38;15.57;;;;;;;19.55;100.00;97385.00;10376458;28;20064;-48
2023/06/26 00:06:34;;;;;;;32.28;14.82;;;;;;;19.61;100.00;97379.50;10375297;28;20077;-51
2023/06/26 00:11:33;;;;;;;31.35;14.95;;;;;;;19.50;100.00;97365.91;10388090;28;20059;-49
2023/06/26 00:16:32;;;;;;;28.58;13.77;;;;;;;19.63;100.00;97382.94;10372090;28;20496;-48
2023/06/26 00:21:31;;;;;;;29.02;14.73;;;;;;;19.54;100.00;97378.03;10371526;28;20129;-51
2023/06/26 00:26:30;;;;;;;39.90;16.98;;;;;;;19.48;100.00;97368.59;10399581;28;20047;-51
2023/06/26 00:31:29;;;;;;;37.75;15.80;;;;;;;19.40;100.00;97382.09;10411042;28;20133;-48
2023/06/26 00:36:28;;;;;;;36.08;15.52;;;;;;;19.31;100.00;97377.22;10411447;28;20032;-51
2023/06/26 00:41:26;;;;;;;42.30;17.70;;;;;;;19.29;100.00;97371.16;10410667;28;20047;-52
2023/06/26 00:46:26;;;;;;;45.67;17.83;;;;;;;19.36;100.00;97375.25;10411107;28;20669;-51
2023/06/26 00:51:27;;;;;;;37.92;17.67;;;;;;;19.38;100.00;97368.16;10410649;28;20159;-50
2023/06/26 00:56:27;;;;;;;35.45;17.58;;;;;;;19.48;100.00;97371.22;10410638;28;20108;-51
2023/06/26 01:01:26;;;;;;;39.22;19.65;;;;;;;19.48;100.00;97378.28;10371407;28;20064;-52
2023/06/26 01:06:27;;;;;;;34.72;17.98;;;;;;;19.29;100.00;97373.78;10409969;28;20071;-52
2023/06/26 01:11:26;;;;;;;39.90;17.42;;;;;;;19.12;100.00;97368.41;10409603;28;20111;-51
2023/06/26 01:16:28;;;;;;;48.78;20.05;;;;;;;19.22;100.00;97356.56;10410517;28;20539;-49
2023/06/26 01:21:32;;;;;;;41.55;18.55;;;;;;;19.10;100.00;97362.34;10409159;28;20092;-49
2023/06/26 01:26:35;;;;;;;39.50;17.83;;;;;;;19.07;100.00;97365.97;10380289;28;20130;-50
2023/06/26 01:31:35;;;;;;;39.35;18.98;;;;;;;19.16;100.00;97364.72;10407478;28;20123;-52
2023/06/26 01:36:34;;;;;;;43.22;19.05;;;;;;;19.10;100.00;97359.72;10408243;28;20075;-51
2023/06/26 01:41:33;;;;;;;45.60;19.42;;;;;;;19.13;100.00;97356.94;10408146;28;20108;-51
2023/06/26 01:46:58;;;;;;;48.72;19.05;;;;;;;19.19;100.00;97357.56;10408731;28;20028;-51
2023/06/26 01:52:20;;;;;;;38.70;18.00;;;;;;;19.19;100.00;97357.56;10407191;28;20471;-51
2023/06/26 01:57:22;;;;;;;29.67;15.52;;;;;;;19.23;100.00;97347.78;10404979;28;20076;-51
2023/06/26 02:02:24;;;;;;;26.63;13.65;;;;;;;19.21;100.00;97349.59;10366649;28;20187;-51
2023/06/26 02:07:23;;;;;;;25.40;13.70;;;;;;;19.23;100.00;97342.50;10366321;28;20124;-51
2023/06/26 02:12:21;;;;;;;29.85;13.75;;;;;;;19.30;100.00;97343.06;10367897;28;20029;-49
2023/06/26 02:17:20;;;;;;;27.35;13.70;;;;;;;19.04;100.00;97300.31;10369444;28;20039;-51
2023/06/26 02:22:20;;;;;;;28.05;12.95;;;;;;;19.02;100.00;97317.97;10369820;28;20547;-49
2023/06/26 02:27:19;;;;;;;26.58;14.40;;;;;;;19.17;100.00;97324.34;10402040;28;20079;-51
2023/06/26 02:32:18;;;;;;;40.80;17.67;;;;;;;19.30;100.00;97328.16;10410093;28;20037;-51
2023/06/26 02:37:17;;;;;;;50.40;19.35;;;;;;;19.28;100.00;97324.75;10410066;28;20028;-49
2023/06/26 02:42:16;;;;;;;43.70;20.75;;;;;;;19.27;100.00;97328.28;10410384;28;20060;-51
2023/06/26 02:47:15;;;;;;;45.88;20.65;;;;;;;19.29;100.00;97325.59;10410250;28;20048;-49
2023/06/26 02:52:14;;;;;;;44.42;21.23;;;;;;;19.13;100.00;97299.94;10409764;28;20037;-52
2023/06/26 02:57:14;;;;;;;46.15;21.02;;;;;;;19.19;100.00;97330.41;10407260;28;20041;-51
2023/06/26 03:02:13;;;;;;;38.80;21.08;;;;;;;19.15;100.00;97331.44;10369438;28;20076;-51
2023/06/26 03:07:12;;;;;;;38.85;21.45;;;;;;;19.06;100.00;97334.44;10375879;28;20691;-51
2023/06/26 03:12:11;;;;;;;40.17;20.80;;;;;;;18.97;100.00;97331.31;10375109;28;20681;-49
2023/06/26 03:17:10;;;;;;;42.08;21.70;;;;;;;18.97;100.00;97333.94;10373062;28;20051;-49
2023/06/26 03:22:09;;;;;;;44.22;20.55;;;;;;;18.90;100.00;97339.50;10372715;28;20132;-51
2023/06/26 03:27:09;;;;;;;33.45;18.48;;;;;;;18.83;100.00;97346.78;10402264;28;20032;-48
2023/06/26 03:32:08;;;;;;;39.58;18.67;;;;;;;18.96;100.00;97345.34;10373593;28;20087;-49
2023/06/26 03:37:07;;;;;;;34.28;18.27;;;;;;;18.66;100.00;97296.63;10412989;28;20056;-48
2023/06/26 03:42:07;;;;;;;37.13;18.65;;;;;;;18.92;100.00;97348.16;10413257;28;20032;-50
2023/06/26 03:47:06;;;;;;;37.15;19.58;;;;;;;18.95;100.00;97348.91;10413433;28;20060;-51
2023/06/26 03:52:05;;;;;;;33.65;18.67;;;;;;;19.00;100.00;97346.94;10371696;28;20036;-48
2023/06/26 03:57:04;;;;;;;42.25;20.17;;;;;;;19.07;100.00;97347.56;10373562;28;20131;-52
2023/06/26 04:02:03;;;;;;;38.35;20.63;;;;;;;19.07;100.00;97347.56;10412996;28;20074;-50
2023/06/26 04:07:02;;;;;;;34.90;19.83;;;;;;;19.07;100.00;97341.44;10411614;28;20125;-51
2023/06/26 04:12:02;;;;;;;31.67;17.73;;;;;;;19.23;100.00;97345.13;10412315;28;20044;-48
2023/06/26 04:17:03;;;;;;;34.97;18.23;;;;;;;19.33;100.00;97343.81;10410802;28;20445;-52
2023/06/26 04:22:03;;;;;;;41.80;18.35;;;;;;;19.50;100.00;97350.13;10410244;28;20074;-49
2023/06/26 04:27:03;;;;;;;40.20;19.65;;;;;;;19.69;100.00;97358.94;10385527;28;20127;-51
2023/06/26 04:32:02;;;;;;;34.35;18.30;;;;;;;19.83;100.00;97360.97;10401232;28;20115;-50
2023/06/26 04:37:05;;;;;;;41.08;20.15;;;;;;;19.92;100.00;97354.44;10410569;28;20571;-51
2023/06/26 04:42:06;;;;;;;41.67;19.63;;;;;;;19.99;99.58;97350.63;10410819;28;20119;-51
2023/06/26 04:47:05;;;;;;;38.13;19.42;;;;;;;20.02;99.13;97353.09;10410204;28;20120;-50
2023/06/26 04:52:04;;;;;;;34.58;19.65;;;;;;;20.09;99.07;97328.19;10400259;28;20381;-49
2023/06/26 04:57:03;;;;;;;38.22;18.83;;;;;;;20.34;97.80;97337.59;10379217;28;20116;-50
2023/06/26 05:02:02;;;;;;;38.50;18.17;;;;;;;20.58;96.96;97362.81;10409267;28;20520;-49
2023/06/26 05:07:01;;;;;;;37.53;19.45;;;;;;;20.50;96.15;97330.72;10404854;28;20155;-52
2023/06/26 05:12:02;;;;;;;35.58;18.00;;;;;;;20.66;95.76;97371.22;10375564;28;20028;-51
2023/06/26 05:17:01;;;;;;;36.70;18.70;;;;;;;20.59;95.75;97368.97;10368262;28;20064;-52
2023/06/26 05:22:03;;;;;;;30.83;17.92;;;;;;;20.64;96.13;97373.09;10364267;28;20052;-51
2023/06/26 05:27:03;;;;;;;42.30;22.10;;;;;;;20.71;95.31;97374.50;10370869;28;20135;-49
2023/06/26 05:32:02;;;;;;;37.10;21.70;;;;;;;20.79;95.04;97371.47;10408165;28;20068;-51
2023/06/26 05:37:01;;;;;;;39.30;19.52;;;;;;;20.98;94.42;97373.22;10390749;28;20428;-49
2023/06/26 05:42:01;;;;;;;34.63;19.52;;;;;;;21.40;93.73;97388.72;10401805;28;20080;-51
2023/06/26 05:47:00;;;;;;;38.53;19.98;;;;;;;21.63;91.10;97384.91;10379473;28;20523;-52
2023/06/26 05:51:59;;;;;;;39.53;19.92;;;;;;;21.85;91.24;97383.81;10375094;28;20036;-51
2023/06/26 05:56:59;;;;;;;39.85;18.95;;;;;;;22.16;90.57;97389.22;10379269;28;20060;-49
2023/06/26 06:01:58;;;;;;;37.90;19.77;;;;;;;22.23;87.98;97388.91;10382355;28;20123;-51
2023/06/26 06:06:57;;;;;;;42.97;17.85;;;;;;;21.99;86.99;97354.03;10376309;28;20144;-50
2023/06/26 06:11:56;;;;;;;35.58;18.55;;;;;;;22.56;85.89;97394.13;10376863;28;20032;-52
2023/06/26 06:16:55;;;;;;;20.02;13.43;;;;;;;22.93;83.88;97389.47;10379048;28;20485;-49
2023/06/26 06:21:54;;;;;;;20.45;13.05;;;;;;;23.23;78.87;97387.69;10376373;28;20143;-49
2023/06/26 06:26:53;;;;;;;18.17;12.02;;;;;;;23.44;77.39;97385.59;10383340;28;20504;-51
2023/06/26 06:31:51;;;;;;;19.45;11.60;;;;;;;23.70;75.43;97385.00;10378284;28;20029;-51
2023/06/26 06:36:52;;;;;;;16.90;11.63;;;;;;;23.91;74.80;97380.19;10371156;28;20090;-51
2023/06/26 06:41:51;;;;;;;18.50;10.63;;;;;;;24.04;73.26;97346.69;10381668;28;20083;-51
2023/06/26 06:46:50;;;;;;;14.15;10.63;;;;;;;24.44;70.00;97371.59;10385334;28;20116;-51
2023/06/26 06:51:49;;;;;;;16.50;10.05;;;;;;;24.59;69.45;97368.91;10384764;28;20040;-51
2023/06/26 06:56:48;;;;;;;17.40;10.43;;;;;;;24.71;66.91;97376.09;10384935;28;20033;-52
2023/06/26 07:01:47;;;;;;;16.83;9.73;;;;;;;24.83;67.10;97369.16;10378875;28;20036;-51
2023/06/26 07:06:46;;;;;;;12.95;9.52;;;;;;;24.81;65.65;97373.69;10369220;28;20049;-53
2023/06/26 07:11:46;;;;;;;14.05;9.75;;;;;;;24.63;66.63;97376.56;10377048;28;20029;-52
2023/06/26 07:16:44;;;;;;;13.35;9.10;;;;;;;24.56;65.93;97379.72;10372669;28;20123;-49
2023/06/26 07:21:44;;;;;;;15.23;10.05;;;;;;;24.59;65.11;97380.38;10383856;28;20136;-51
2023/06/26 07:26:43;;;;;;;14.98;9.20;;;;;;;24.47;66.15;97387.31;10390765;28;20771;-52
2023/06/26 07:31:42;;;;;;;14.93;10.95;;;;;;;24.26;66.21;97381.56;10377803;28;20120;-52
2023/06/26 07:36:41;;;;;;;11.65;10.23;;;;;;;24.07;67.66;97383.59;10378103;28;20031;-51
2023/06/26 07:41:40;;;;;;;13.43;9.85;;;;;;;24.05;68.89;97390.78;10375443;28;20021;-51
2023/06/26 07:46:39;;;;;;;14.18;10.05;;;;;;;24.03;68.34;97390.91;10379156;28;20419;-52
2023/06/26 07:51:38;;;;;;;11.63;8.95;;;;;;;24.13;68.84;97371.78;10381615;28;20033;-53
2023/06/26 07:56:55;;;;;;;10.60;8.10;;;;;;;24.80;67.40;97399.38;10385987;28;20476;-52
2023/06/26 08:01:56;;;;;;;14.95;8.07;;;;;;;25.18;63.21;97390.75;10387271;28;20480;-52
2023/06/26 08:06:57;;;;;;;14.35;9.07;;;;;;;25.66;61.57;97396.41;10380864;28;20079;-52
2023/06/26 08:11:57;;;;;;;12.70;7.72;;;;;;;25.84;58.66;97391.66;10390676;28;20488;-51
2023/06/26 08:16:55;;;;;;;12.68;7.35;;;;;;;25.49;58.19;97376.28;10401490;28;20063;-51
2023/06/26 08:21:54;;;;;;;12.15;7.22;;;;;;;25.42;59.18;97379.44;10397165;28;20040;-52
2023/06/26 08:26:53;;;;;;;8.80;6.70;;;;;;;25.70;57.81;97373.16;10383901;28;20223;-51
2023/06/26 08:31:52;;;;;;;9.23;7.13;;;;;;;25.88;57.23;97358.59;10384267;28;20084;-51
2023/06/26 08:36:51;;;;;;;9.48;6.55;;;;;;;26.33;58.01;97371.44;10382318;28;20032;-51
2023/06/26 08:41:50;;;;;;;9.85;6.90;;;;;;;26.74;54.71;97372.94;10384957;28;20123;-49
2023/06/26 08:46:51;;;;;;;8.45;6.15;;;;;;;26.33;53.74;97339.53;10384466;28;20072;-48
2023/06/26 08:52:01;;;;;;;7.75;6.03;;;;;;;26.01;55.03;97385.16;10379595;28;20068;-52
2023/06/26 08:57:01;;;;;;;8.98;6.25;;;;;;;25.41;58.52;97378.59;10386695;28;20115;-50
2023/06/26 09:02:02;;;;;;;7.80;6.32;;;;;;;24.86;60.29;97375.13;10382359;28;20061;-50
2023/06/26 09:07:01;;;;;;;7.63;6.25;;;;;;;24.61;59.98;97367.00;10381839;28;20128;-51
2023/06/26 09:12:02;;;;;;;9.10;6.55;;;;;;;24.87;61.19;97371.53;10381132;28;20116;-51
2023/06/26 09:17:02;;;;;;;7.53;6.25;;;;;;;25.32;59.53;97368.59;10384542;28;20116;-51
2023/06/26 09:22:01;;;;;;;7.57;5.40;;;;;;;25.35;57.90;97371.03;10384925;28;20123;-52
2023/06/26 09:27:01;;;;;;;7.65;5.75;;;;;;;25.87;55.97;97371.97;10383963;28;20039;-50
2023/06/26 09:32:00;;;;;;;7.40;5.63;;;;;;;26.05;53.59;97368.03;10380432;28;20085;-52
2023/06/26 09:37:02;;;;;;;7.43;6.13;;;;;;;25.77;54.76;97363.78;10382319;28;20029;-50
2023/06/26 09:42:01;;;;;;;12.02;8.23;;;;;;;25.67;57.25;97357.41;10380065;28;20563;-50
2023/06/26 09:47:04;;;;;;;7.72;6.47;;;;;;;25.85;56.40;97358.78;10385031;28;20132;-52
2023/06/26 09:52:03;;;;;;;7.68;5.70;;;;;;;25.95;55.06;97359.84;10380846;28;20117;-50
2023/06/26 09:57:09;;;;;;;7.97;5.63;;;;;;;26.16;54.04;97357.50;10381486;28;20111;-51
2023/06/26 10:02:08;;;;;;;7.35;5.55;;;;;;;26.22;51.67;97356.25;10372606;28;20120;-52
2023/06/26 10:07:14;;;;;;;7.72;5.50;;;;;;;26.28;52.47;97362.94;10394917;28;20141;-52
2023/06/26 10:12:29;;;;;;;7.97;6.07;;;;;;;25.64;54.52;97352.28;10375943;28;20078;-50
2023/06/26 10:17:32;;;;;;;8.90;5.45;;;;;;;26.27;53.83;97351.44;10370367;28;20056;-49
2023/06/26 10:22:35;;;;;;;6.90;4.75;;;;;;;25.78;52.58;97352.19;10401518;28;20067;-52
2023/06/26 10:27:44;;;;;;;5.72;4.20;;;;;;;26.02;50.71;97340.81;10384690;28;20066;-52
2023/06/26 10:32:44;;;;;;;7.63;5.18;;;;;;;26.11;50.10;97314.44;10380074;28;20550;-51
2023/06/26 10:37:47;;;;;;;8.50;6.15;;;;;;;26.17;53.00;97327.28;10379553;28;20051;-53
2023/06/26 10:42:46;;;;;;;8.25;5.97;;;;;;;25.64;56.81;97336.34;10380050;28;20140;-52
2023/06/26 10:47:51;;;;;;;7.82;5.75;;;;;;;25.01;57.70;97337.91;10380276;28;20029;-51
2023/06/26 10:53:13;;;;;;;8.60;6.28;;;;;;;25.11;57.05;97325.75;10381884;28;20770;-50
2023/06/26 10:58:39;;;;;;;8.93;5.93;;;;;;;25.60;54.85;97311.81;10380619;28;20061;-51
2023/06/26 11:03:39;;;;;;;8.57;5.50;;;;;;;26.32;53.96;97300.56;10405571;28;20478;-51
2023/06/26 11:08:46;;;;;;;9.38;5.97;;;;;;;26.75;52.51;97298.28;10405076;28;20069;-53
2023/06/26 11:13:46;;;;;;;7.88;5.15;;;;;;;27.15;49.87;97300.66;10382410;28;20142;-52
2023/06/26 11:18:45;;;;;;;6.78;4.97;;;;;;;27.48;47.99;97295.56;10377235;28;20108;-52
2023/06/26 11:23:48;;;;;;;6.82;4.72;;;;;;;27.67;46.04;97271.00;10379655;28;20059;-53
2023/06/26 11:28:49;;;;;;;6.82;4.78;;;;;;;27.17;47.43;97309.38;10387265;28;20567;-51
2023/06/26 11:33:48;;;;;;;11.13;5.03;;;;;;;26.47;50.46;97307.44;10385209;28;20067;-49
2023/06/26 11:38:52;;;;;;;10.48;5.30;;;;;;;26.49;50.53;97308.19;10389081;28;20114;-51
2023/06/26 11:43:52;;;;;;;5.97;5.38;;;;;;;26.10;53.19;97280.81;10384295;28;20060;-50
2023/06/26 11:48:52;;;;;;;9.68;6.00;;;;;;;26.21;54.98;97313.81;10364624;28;20124;-51
2023/06/26 11:53:51;;;;;;;11.00;6.07;;;;;;;25.86;55.35;97309.16;10371983;28;20482;-50
2023/06/26 11:59:02;;;;;;;8.70;5.97;;;;;;;25.76;56.38;97313.38;10393477;28;20394;-52
2023/06/26 12:04:07;;;;;;;7.43;5.97;;;;;;;25.91;55.16;97315.84;10368038;28;21764;-49
2023/06/26 12:09:10;;;;;;;7.47;5.80;;;;;;;26.27;55.71;97316.00;10373831;28;20459;-49
2023/06/26 12:14:10;;;;;;;7.80;6.00;;;;;;;26.50;54.10;97328.50;10403801;28;20119;-52
2023/06/26 12:19:09;;;;;;;7.30;5.38;;;;;;;26.45;53.04;97325.34;10390786;28;20782;-51
2023/06/26 12:24:12;;;;;;;8.25;5.50;;;;;;;26.80;53.27;97319.25;10372225;28;20059;-50
2023/06/26 12:29:13;;;;;;;6.90;5.20;;;;;;;26.90;52.29;97330.94;10371858;28;20103;-49
2023/06/26 12:34:17;;;;;;;8.23;5.65;;;;;;;26.64;53.07;97297.38;10370923;28;20108;-52
2023/06/26 12:39:20;;;;;;;8.50;5.95;;;;;;;27.25;52.92;97327.44;10409053;28;20060;-52
2023/06/26 12:44:21;;;;;;;7.93;5.72;;;;;;;27.58;50.59;97329.38;10408475;28;20124;-51
2023/06/26 12:49:28;;;;;;;8.73;5.63;;;;;;;27.79;49.68;97331.34;10381627;28;20144;-52
2023/06/26 12:54:28;;;;;;;6.53;5.07;;;;;;;27.82;48.86;97326.66;10408229;28;20108;-52
2023/06/26 12:59:27;;;;;;;8.23;5.75;;;;;;;27.99;48.73;97333.31;10394203;28;20163;-52
2023/06/26 13:04:26;;;;;;;6.95;5.15;;;;;;;27.26;49.30;97337.16;10406804;28;20039;-50
2023/06/26 13:09:25;;;;;;;7.55;5.32;;;;;;;26.90;51.65;97332.75;10408788;28;20103;-52
2023/06/26 13:14:24;;;;;;;8.68;5.88;;;;;;;26.78;51.90;97323.84;10385675;28;20143;-50
2023/06/26 13:19:23;;;;;;;7.40;5.18;;;;;;;26.86;51.94;97328.63;10370021;28;20036;-52
2023/06/26 13:24:22;;;;;;;6.82;5.00;;;;;;;27.28;50.55;97339.69;10368533;28;20119;-49
2023/06/26 13:29:22;;;;;;;7.38;5.63;;;;;;;27.16;50.29;97296.19;10406656;28;20132;-49
2023/06/26 13:34:23;;;;;;;8.20;5.72;;;;;;;27.25;50.76;97337.25;10408318;28;20075;-52
2023/06/26 13:39:22;;;;;;;8.75;5.18;;;;;;;27.23;50.52;97340.03;10407095;28;20384;-46
2023/06/26 13:44:21;;;;;;;8.60;4.82;;;;;;;27.06;50.64;97332.47;10405611;28;20020;-49
2023/06/26 13:49:20;;;;;;;10.40;5.72;;;;;;;27.09;52.21;97329.56;10405494;28;20017;-48
2023/06/26 13:54:19;;;;;;;7.07;5.22;;;;;;;27.32;51.39;97318.03;10405305;28;20111;-48
2023/06/26 13:59:18;;;;;;;7.43;5.22;;;;;;;27.89;50.78;97324.31;10384535;28;20028;-51
2023/06/26 14:04:17;;;;;;;7.15;5.28;;;;;;;28.29;49.05;97318.56;10366928;28;20108;-51
2023/06/26 14:09:16;;;;;;;7.78;4.80;;;;;;;28.56;47.54;97310.13;10371764;28;20032;-50
2023/06/26 14:14:15;;;;;;;8.15;5.40;;;;;;;28.60;48.01;97306.22;10408114;28;20029;-50
2023/06/26 14:19:15;;;;;;;6.60;4.75;;;;;;;28.56;48.04;97307.44;10408017;28;20037;-51
2023/06/26 14:24:13;;;;;;;7.15;4.68;;;;;;;28.51;45.76;97300.81;10406861;28;20094;-50
2023/06/26 14:29:15;;;;;;;8.40;4.40;;;;;;;28.34;45.94;97307.50;10407931;28;20120;-51
2023/06/26 14:34:14;;;;;;;7.18;4.40;;;;;;;28.19;46.68;97305.06;10408028;28;20072;-51
2023/06/26 14:39:13;;;;;;;5.25;3.63;;;;;;;27.75;45.67;97285.44;10408190;28;20072;-51
2023/06/26 14:44:12;;;;;;;5.68;3.58;;;;;;;27.58;46.03;97296.56;10406249;28;20131;-49
2023/06/26 14:49:12;;;;;;;10.18;4.10;;;;;;;27.54;47.31;97289.75;10372995;28;20112;-52
2023/06/26 14:54:11;;;;;;;6.63;4.35;;;;;;;27.05;49.04;97298.78;10370078;28;20076;-52
2023/06/26 14:59:10;;;;;;;4.72;3.78;;;;;;;26.87;49.60;97301.88;10384634;28;20048;-51
2023/06/26 15:04:10;;;;;;;5.90;3.80;;;;;;;26.82;50.51;97303.16;10378025;28;20064;-52
2023/06/26 15:09:09;;;;;;;6.07;4.15;;;;;;;26.84;51.82;97312.78;10373102;28;20091;-53
2023/06/26 15:14:08;;;;;;;9.02;4.50;;;;;;;26.66;53.18;97320.25;10364824;28;20151;-51
2023/06/26 15:19:08;;;;;;;8.65;4.55;;;;;;;26.49;55.42;97320.66;10396372;28;20115;-49
2023/06/26 15:24:07;;;;;;;6.85;4.20;;;;;;;26.39;55.00;97316.94;10369565;28;20152;-51
2023/06/26 15:29:06;;;;;;;5.10;3.72;;;;;;;26.42;54.45;97330.00;10366477;28;20424;-52
2023/06/26 15:34:06;;;;;;;5.60;3.92;;;;;;;26.19;54.32;97331.66;10367714;28;20033;-50
2023/06/26 15:39:05;;;;;;;4.60;3.53;;;;;;;25.68;54.71;97274.91;10366588;28;20116;-52
2023/06/26 15:44:04;;;;;;;7.97;3.90;;;;;;;25.90;55.23;97326.56;10366867;28;20127;-50
2023/06/26 15:49:03;;;;;;;6.85;4.07;;;;;;;25.76;55.48;97324.03;10365463;28;20120;-51
2023/06/26 15:54:02;;;;;;;6.97;4.07;;;;;;;25.86;55.87;97331.25;10368381;28;20044;-49
2023/06/26 15:59:01;;;;;;;9.38;4.25;;;;;;;26.07;55.69;97326.25;10383375;28;20068;-52
2023/06/26 16:04:00;;;;;;;5.40;3.97;;;;;;;26.08;54.99;97327.09;10404398;28;20135;-51
2023/06/26 16:08:59;;;;;;;8.82;4.45;;;;;;;26.11;54.72;97330.41;10401593;28;20035;-51
2023/06/26 16:13:58;;;;;;;8.75;4.55;;;;;;;26.12;54.62;97331.25;10375172;28;20076;-52
2023/06/26 16:18:57;;;;;;;8.60;4.60;;;;;;;26.07;55.17;97325.41;10374146;28;20132;-50
2023/06/26 16:23:56;;;;;;;6.15;4.22;;;;;;;26.04;54.95;97328.25;10403724;28;20028;-48
2023/06/26 16:28:55;;;;;;;9.05;4.68;;;;;;;25.89;54.67;97328.38;10409371;28;20522;-50
2023/06/26 16:33:54;;;;;;;7.88;4.70;;;;;;;25.76;55.58;97321.38;10410616;28;20065;-51
2023/06/26 16:38:53;;;;;;;6.63;4.15;;;;;;;25.75;56.18;97317.88;10410114;28;20532;-50
2023/06/26 16:43:52;;;;;;;10.38;4.43;;;;;;;25.79;57.35;97319.34;10409642;28;20024;-49
2023/06/26 16:48:56;;;;;;;10.52;4.78;;;;;;;25.69;58.25;97324.47;10408018;28;20103;-51
2023/06/26 16:53:55;;;;;;;7.60;4.68;;;;;;;25.52;59.40;97322.91;10409840;28;20115;-49
2023/06/26 16:58:54;;;;;;;8.32;4.70;;;;;;;25.25;60.28;97332.78;10398754;28;20107;-49
2023/06/26 17:03:54;;;;;;;7.25;4.32;;;;;;;25.03;61.16;97342.16;10406534;28;20024;-51
2023/06/26 17:08:53;;;;;;;7.05;4.95;;;;;;;24.87;61.55;97352.06;10406473;28;20090;-49
2023/06/26 17:13:52;;;;;;;8.50;4.75;;;;;;;24.78;62.38;97363.25;10370889;28;20031;-48
2023/06/26 17:18:51;;;;;;;9.45;5.47;;;;;;;24.64;63.12;97353.56;10406580;28;20036;-50
2023/06/26 17:23:50;;;;;;;7.88;4.88;;;;;;;24.42;64.17;97362.88;10401442;28;20115;-53
2023/06/26 17:28:49;;;;;;;9.05;4.68;;;;;;;24.20;65.10;97367.84;10407492;28;20056;-53
2023/06/26 17:33:48;;;;;;;7.53;4.18;;;;;;;23.98;66.46;97385.03;10384039;28;20178;-50
2023/06/26 17:38:47;;;;;;;8.55;4.97;;;;;;;23.62;68.01;97369.56;10370666;28;20021;-51
2023/06/26 17:43:46;;;;;;;8.63;4.45;;;;;;;23.54;69.03;97396.50;10390468;28;20420;-52
2023/06/26 17:48:45;;;;;;;8.52;4.72;;;;;;;23.37;69.97;97404.56;10403079;28;20094;-51
2023/06/26 17:53:44;;;;;;;13.52;6.00;;;;;;;23.18;71.12;97402.13;10406330;28;20360;-52
2023/06/26 17:58:43;;;;;;;11.00;5.63;;;;;;;23.00;72.36;97407.53;10388385;28;20029;-52
2023/06/26 18:03:42;;;;;;;9.88;5.65;;;;;;;22.74;73.28;97411.66;10369563;28;20039;-52
2023/06/26 18:08:41;;;;;;;11.70;5.95;;;;;;;22.71;73.98;97418.84;10389176;28;20033;-49
2023/06/26 18:13:40;;;;;;;11.95;6.22;;;;;;;22.64;74.59;97430.72;10394486;28;20058;-52
2023/06/26 18:18:39;;;;;;;10.10;6.38;;;;;;;22.44;75.87;97445.88;10386747;28;20045;-50
2023/06/26 18:23:38;;;;;;;8.98;5.47;;;;;;;22.41;75.17;97451.31;10376775;28;20517;-52
2023/06/26 18:28:37;;;;;;;11.20;6.05;;;;;;;22.38;75.97;97478.78;10367655;28;20483;-50
2023/06/26 18:33:37;;;;;;;9.88;6.18;;;;;;;21.77;75.52;97493.34;10385225;28;20490;-51
2023/06/26 18:38:36;;;;;;;8.35;4.82;;;;;;;21.49;75.72;97499.16;10394342;28;20084;-53
2023/06/26 18:43:35;;;;;;;5.63;4.10;;;;;;;20.90;77.70;97519.53;10370530;28;20045;-51
2023/06/26 18:48:34;;;;;;;8.63;4.93;;;;;;;20.86;78.32;97525.84;10384344;28;20076;-50
2023/06/26 18:53:33;;;;;;;9.77;4.57;;;;;;;21.06;79.05;97547.84;10404282;28;20032;-52
2023/06/26 18:58:32;;;;;;;6.88;4.68;;;;;;;20.99;81.21;97536.72;10389169;28;20148;-52
2023/06/26 19:03:31;;;;;;;5.97;3.67;;;;;;;20.95;83.60;97545.69;10403788;28;20530;-54
2023/06/26 19:08:30;;;;;;;4.95;3.83;;;;;;;20.81;84.81;97540.19;10391835;28;20103;-49
2023/06/26 19:13:30;;;;;;;5.47;3.70;;;;;;;20.63;85.93;97550.66;10384264;28;20492;-51
2023/06/26 19:18:29;;;;;;;6.22;3.95;;;;;;;20.28;86.22;97520.53;10383028;28;20064;-49
2023/06/26 19:23:29;;;;;;;6.00;4.15;;;;;;;20.45;86.13;97551.47;10383265;28;20076;-51
2023/06/26 19:28:28;;;;;;;6.70;4.57;;;;;;;20.44;85.84;97550.59;10384476;28;20092;-51
2023/06/26 19:33:27;;;;;;;6.50;4.75;;;;;;;20.44;86.38;97560.28;10382697;28;20068;-51
2023/06/26 19:38:26;;;;;;;6.38;4.40;;;;;;;20.36;85.50;97565.88;10381982;28;20512;-52
2023/06/26 19:43:25;;;;;;;5.32;4.05;;;;;;;19.87;86.67;97566.16;10382886;28;20503;-50
2023/06/26 19:48:24;;;;;;;7.50;4.30;;;;;;;19.73;87.62;97573.78;10385100;28;20039;-52
2023/06/26 19:53:26;;;;;;;6.55;4.25;;;;;;;19.40;88.89;97528.59;10402216;28;20139;-51
2023/06/26 19:58:25;;;;;;;7.32;4.72;;;;;;;19.69;88.27;97555.53;10402774;28;20076;-50
2023/06/26 20:03:24;;;;;;;7.57;4.05;;;;;;;19.50;87.82;97540.47;10388750;28;20120;-48
2023/06/26 20:08:23;;;;;;;6.32;4.32;;;;;;;19.48;87.80;97554.59;10401894;28;20120;-52
2023/06/26 20:13:22;;;;;;;6.75;4.20;;;;;;;19.52;87.43;97554.41;10391584;28;20033;-50
2023/06/26 20:18:22;;;;;;;5.90;4.57;;;;;;;19.59;86.91;97555.06;10386602;28;20041;-50
2023/06/26 20:23:21;;;;;;;6.50;4.30;;;;;;;19.70;86.38;97558.13;10381881;28;20084;-50
2023/06/26 20:28:20;;;;;;;5.97;4.38;;;;;;;19.57;86.36;97551.63;10397822;28;20055;-51
2023/06/26 20:33:19;;;;;;;7.63;5.38;;;;;;;19.59;85.98;97560.34;10399462;28;20076;-49
2023/06/26 20:38:18;;;;;;;6.55;4.32;;;;;;;19.48;87.40;97562.50;10397710;28;20044;-51
2023/06/26 20:43:17;;;;;;;9.98;5.25;;;;;;;19.33;88.68;97556.94;10396910;28;20494;-50
2023/06/26 20:48:16;;;;;;;9.82;5.65;;;;;;;19.37;88.41;97553.28;10391227;28;20060;-51
2023/06/26 20:53:16;;;;;;;11.45;5.50;;;;;;;19.35;88.39;97555.09;10397876;28;20095;-51
2023/06/26 20:58:15;;;;;;;7.40;5.43;;;;;;;19.31;88.46;97561.41;10395162;28;20095;-51
2023/06/26 21:03:14;;;;;;;7.20;5.40;;;;;;;19.26;88.77;97544.94;10383566;28;20041;-49
2023/06/26 21:08:13;;;;;;;10.05;5.68;;;;;;;19.20;89.19;97548.66;10383969;28;20128;-51
2023/06/26 21:13:11;;;;;;;9.88;6.05;;;;;;;19.14;89.58;97548.91;10392330;28;20032;-51
2023/06/26 21:18:11;;;;;;;10.43;6.60;;;;;;;19.10;90.24;97544.66;10396076;28;20052;-49
2023/06/26 21:23:10;;;;;;;8.98;6.63;;;;;;;19.05;90.83;97537.88;10402839;28;20487;-50
2023/06/26 21:28:09;;;;;;;12.02;6.85;;;;;;;19.02;91.17;97539.72;10383407;28;20037;-51
2023/06/26 21:33:08;;;;;;;11.95;7.25;;;;;;;18.96;91.44;97528.56;10384562;28;20487;-50
2023/06/26 21:38:07;;;;;;;10.18;7.32;;;;;;;18.87;91.40;97529.78;10383054;28;20478;-50
2023/06/26 21:43:06;;;;;;;10.85;7.03;;;;;;;18.71;92.20;97515.50;10382060;28;20577;-50
2023/06/26 21:48:06;;;;;;;11.52;7.85;;;;;;;18.67;93.05;97527.03;10384412;28;20120;-48
2023/06/26 21:53:05;;;;;;;12.43;7.93;;;;;;;18.32;94.61;97474.00;10371803;28;20080;-51
2023/06/26 21:58:04;;;;;;;11.10;7.22;;;;;;;18.52;95.51;97517.91;10400303;28;20067;-50
2023/06/26 22:03:04;;;;;;;10.07;7.47;;;;;;;18.38;95.90;97527.16;10368714;28;20036;-49
2023/06/26 22:08:03;;;;;;;11.32;7.20;;;;;;;18.33;96.21;97523.84;10370704;28;20131;-50
2023/06/26 22:13:03;;;;;;;12.60;7.60;;;;;;;18.29;96.05;97522.25;10407021;28;20072;-48
2023/06/26 22:18:02;;;;;;;11.20;7.50;;;;;;;18.27;95.89;97521.44;10409027;28;20079;-49
2023/06/26 22:23:02;;;;;;;11.23;7.53;;;;;;;18.22;96.31;97519.88;10409952;28;20478;-49
2023/06/26 22:28:00;;;;;;;14.02;8.57;;;;;;;18.19;96.44;97526.94;10409855;28;20084;-50
2023/06/26 22:32:59;;;;;;;10.18;7.30;;;;;;;18.14;96.35;97520.16;10409632;28;20044;-50
2023/06/26 22:37:58;;;;;;;11.98;8.05;;;;;;;18.10;96.38;97514.13;10410500;28;20032;-50
2023/06/26 22:42:58;;;;;;;12.48;7.30;;;;;;;17.92;97.82;97509.56;10409621;28;20062;-50
2023/06/26 22:47:57;;;;;;;15.15;8.18;;;;;;;18.00;96.77;97514.53;10410491;28;20079;-50
2023/06/26 22:52:57;;;;;;;9.20;7.03;;;;;;;17.93;97.00;97521.75;10368957;28;20052;-48
2023/06/26 22:57:57;;;;;;;19.27;6.60;;;;;;;17.76;97.41;97525.81;10379089;28;20530;-49